Time,TemperatureF,DewpointF,PressureIn,WindDirection,WindDirectionDegrees,WindSpeedMPH,WindSpeedGustMPH,Humidity,HourlyPrecipIn,Conditions,Clouds,dailyrainin,SoftwareType,DateUTC
2013-07-18 00:00:00,72.5,44.8,30.18,SSE,157,15.0,15.4,37,0.00,,---,0.00,VWS V14.01,2013-07-18 06:00:00,
2013-07-18 00:05:00,72.3,44.6,30.18,SSE,151,16.3,16.3,37,0.00,,---,0.00,VWS V14.01,2013-07-18 06:05:00,
2013-07-18 00:11:00,72.1,44.5,30.18,SE,143,15.4,18.3,37,0.00,,---,0.00,VWS V14.01,2013-07-18 06:11:00,
2013-07-18 00:17:00,72.1,45.2,30.18,SSE,159,15.9,15.9,38,0.00,,---,0.00,VWS V14.01,2013-07-18 06:17:00,
2013-07-18 00:23:00,72.1,45.2,30.18,SSE,159,15.0,15.0,38,0.00,,---,0.00,VWS V14.01,2013-07-18 06:23:00,
2013-07-18 00:28:00,72.1,45.2,30.18,SSE,168,15.4,16.8,38,0.00,,---,0.00,VWS V14.01,2013-07-18 06:28:00,
2013-07-18 00:34:00,72.1,45.2,30.18,SSE,158,14.5,14.5,38,0.00,,---,0.00,VWS V14.01,2013-07-18 06:34:00,
2013-07-18 00:39:00,72.0,45.7,30.18,SSE,168,13.6,16.3,39,0.00,,---,0.00,VWS V14.01,2013-07-18 06:39:00,
2013-07-18 00:45:00,71.8,45.5,30.18,South,172,14.1,16.8,39,0.00,,---,0.00,VWS V14.01,2013-07-18 06:45:00,
2013-07-18 00:51:00,71.4,45.9,30.18,South,169,12.8,12.8,40,0.00,,---,0.00,VWS V14.01,2013-07-18 06:51:00,
2013-07-18 00:56:00,71.2,46.4,30.18,SSE,158,15.0,15.0,41,0.00,,---,0.00,VWS V14.01,2013-07-18 06:56:00,
2013-07-18 01:02:00,71.1,46.2,30.18,SSE,152,12.3,13.6,41,0.00,,---,0.00,VWS V14.01,2013-07-18 07:02:00,
2013-07-18 01:07:00,70.9,46.7,30.18,SSE,162,14.1,14.1,42,0.00,,---,0.00,VWS V14.01,2013-07-18 07:07:00,
2013-07-18 01:12:00,70.9,46.7,30.18,South,175,15.0,15.0,42,0.00,,---,0.00,VWS V14.01,2013-07-18 07:12:00,
2013-07-18 01:17:00,70.9,46.7,30.18,SSE,167,15.0,15.0,42,0.00,,---,0.00,VWS V14.01,2013-07-18 07:17:00,
2013-07-18 01:23:00,70.5,46.3,30.18,South,182,15.9,15.9,42,0.00,,---,0.00,VWS V14.01,2013-07-18 07:23:00,
2013-07-18 01:28:00,70.5,47.0,30.18,SSE,166,15.4,15.4,43,0.00,,---,0.00,VWS V14.01,2013-07-18 07:28:00,
2013-07-18 01:34:00,70.5,47.0,30.18,South,169,13.2,14.5,43,0.00,,---,0.00,VWS V14.01,2013-07-18 07:34:00,
2013-07-18 01:39:00,70.5,47.0,30.18,SSE,152,10.5,11.0,43,0.00,,---,0.00,VWS V14.01,2013-07-18 07:39:00,
2013-07-18 01:45:00,70.3,46.8,30.18,SSE,159,11.9,15.0,43,0.00,,---,0.00,VWS V14.01,2013-07-18 07:45:00,
2013-07-18 01:50:00,70.3,46.8,30.18,SSE,167,15.0,15.0,43,0.00,,---,0.00,VWS V14.01,2013-07-18 07:50:00,
2013-07-18 01:55:00,70.3,46.8,30.18,South,175,13.2,13.2,43,0.00,,---,0.00,VWS V14.01,2013-07-18 07:55:00,
2013-07-18 02:01:00,70.3,46.8,30.18,SSE,158,13.2,13.2,43,0.00,,---,0.00,VWS V14.01,2013-07-18 08:01:00,
2013-07-18 02:06:00,70.2,47.2,30.15,SSE,159,8.7,11.0,44,0.00,,---,0.00,VWS V14.01,2013-07-18 08:06:00,
2013-07-18 02:12:00,69.8,46.9,30.15,SSE,150,7.6,10.1,44,0.00,,---,0.00,VWS V14.01,2013-07-18 08:12:00,
2013-07-18 02:17:00,69.8,46.9,30.15,SSE,157,12.3,12.3,44,0.00,,---,0.00,VWS V14.01,2013-07-18 08:17:00,
2013-07-18 02:23:00,69.3,46.4,30.15,SSE,153,10.5,10.5,44,0.00,,---,0.00,VWS V14.01,2013-07-18 08:23:00,
2013-07-18 02:28:00,68.7,46.0,30.15,SSE,154,10.1,11.0,44,0.00,,---,0.00,VWS V14.01,2013-07-18 08:28:00,
2013-07-18 02:33:00,68.4,45.6,30.15,SSE,153,10.1,10.5,44,0.00,,---,0.00,VWS V14.01,2013-07-18 08:33:00,
2013-07-18 02:38:00,68.2,46.0,30.15,SSE,149,8.7,11.0,45,0.00,,---,0.00,VWS V14.01,2013-07-18 08:38:00,
2013-07-18 02:44:00,68.2,46.0,30.15,SSE,155,8.7,8.7,45,0.00,,---,0.00,VWS V14.01,2013-07-18 08:44:00,
2013-07-18 02:50:00,67.8,46.3,30.15,SSE,168,6.3,8.7,46,0.00,,---,0.00,VWS V14.01,2013-07-18 08:50:00,
2013-07-18 02:55:00,67.5,46.0,30.15,SSE,160,8.3,8.7,46,0.00,,---,0.00,VWS V14.01,2013-07-18 08:55:00,
2013-07-18 03:01:00,67.1,45.7,30.15,SSE,150,7.6,7.6,46,0.00,,---,0.00,VWS V14.01,2013-07-18 09:01:00,
2013-07-18 03:06:00,66.9,46.0,30.15,SE,143,7.6,8.7,47,0.00,,---,0.00,VWS V14.01,2013-07-18 09:06:00,
2013-07-18 03:11:00,66.7,45.9,30.15,SSE,154,9.2,9.2,47,0.00,,---,0.00,VWS V14.01,2013-07-18 09:11:00,
2013-07-18 03:16:00,66.4,45.6,30.15,SE,145,9.6,9.6,47,0.00,,---,0.00,VWS V14.01,2013-07-18 09:16:00,
2013-07-18 03:22:00,66.0,45.8,30.15,SSE,154,9.2,10.1,48,0.00,,---,0.00,VWS V14.01,2013-07-18 09:22:00,
2013-07-18 03:27:00,66.0,45.8,30.15,SSE,155,10.1,10.1,48,0.00,,---,0.00,VWS V14.01,2013-07-18 09:27:00,
2013-07-18 03:32:00,65.8,46.2,30.15,SSE,152,10.5,10.5,49,0.00,,---,0.00,VWS V14.01,2013-07-18 09:32:00,
2013-07-18 03:38:00,65.7,46.0,30.15,SSE,149,10.5,10.5,49,0.00,,---,0.00,VWS V14.01,2013-07-18 09:38:00,
2013-07-18 03:44:00,65.7,46.5,30.15,SSE,156,8.7,10.1,50,0.00,,---,0.00,VWS V14.01,2013-07-18 09:44:00,
2013-07-18 03:50:00,65.7,46.5,30.15,SSE,149,8.3,8.3,50,0.00,,---,0.00,VWS V14.01,2013-07-18 09:50:00,
2013-07-18 03:55:00,65.7,46.5,30.15,SE,145,10.1,10.1,50,0.00,,---,0.00,VWS V14.01,2013-07-18 09:55:00,
2013-07-18 04:00:00,65.5,46.4,30.15,SSE,148,9.2,9.2,50,0.00,,---,0.00,VWS V14.01,2013-07-18 10:00:00,
2013-07-18 04:05:00,65.1,46.6,30.15,SSE,149,10.5,10.5,51,0.00,,---,0.00,VWS V14.01,2013-07-18 10:05:00,
2013-07-18 04:11:00,64.9,46.4,30.15,SSE,152,10.1,10.5,51,0.00,,---,0.00,VWS V14.01,2013-07-18 10:11:00,
2013-07-18 04:16:00,64.9,46.9,30.15,SE,142,10.5,10.5,52,0.00,,---,0.00,VWS V14.01,2013-07-18 10:16:00,
2013-07-18 04:22:00,64.8,46.7,30.15,SE,146,11.0,11.0,52,0.00,,---,0.00,VWS V14.01,2013-07-18 10:22:00,
2013-07-18 04:27:00,64.8,47.2,30.15,SSE,149,10.5,10.5,53,0.00,,---,0.00,VWS V14.01,2013-07-18 10:27:00,
2013-07-18 04:33:00,64.6,48.1,30.15,SE,145,11.0,11.0,55,0.00,,---,0.00,VWS V14.01,2013-07-18 10:33:00,
2013-07-18 04:39:00,64.4,48.4,30.15,SSE,152,11.0,13.2,56,0.00,,---,0.00,VWS V14.01,2013-07-18 10:39:00,
2013-07-18 04:44:00,64.4,48.4,30.15,SE,142,11.4,11.4,56,0.00,,---,0.00,VWS V14.01,2013-07-18 10:44:00,
2013-07-18 04:50:00,64.2,49.6,30.15,SE,145,10.5,13.2,59,0.00,,---,0.00,VWS V14.01,2013-07-18 10:50:00,
2013-07-18 04:56:00,64.2,49.6,30.15,SE,137,10.1,10.1,59,0.00,,---,0.00,VWS V14.01,2013-07-18 10:56:00,
2013-07-18 05:01:00,64.4,49.8,30.15,SE,143,11.0,11.0,59,0.00,,---,0.00,VWS V14.01,2013-07-18 11:01:00,
2013-07-18 05:07:00,64.4,49.8,30.15,SSE,152,9.2,10.5,59,0.00,,---,0.00,VWS V14.01,2013-07-18 11:07:00,
2013-07-18 05:12:00,64.4,49.8,30.12,SSE,155,10.1,10.1,59,0.00,,---,0.00,VWS V14.01,2013-07-18 11:12:00,
2013-07-18 05:18:00,64.4,49.8,30.12,SSE,157,11.4,13.2,59,0.00,,---,0.00,VWS V14.01,2013-07-18 11:18:00,
2013-07-18 05:23:00,64.4,49.8,30.12,SSE,149,12.3,12.8,59,0.00,,---,0.00,VWS V14.01,2013-07-18 11:23:00,
2013-07-18 05:29:00,64.2,50.1,30.12,SE,138,13.2,13.2,60,0.00,,---,0.00,VWS V14.01,2013-07-18 11:29:00,
2013-07-18 05:34:00,64.2,50.1,30.12,SSE,147,12.8,13.2,60,0.00,,---,0.00,VWS V14.01,2013-07-18 11:34:00,
2013-07-18 05:39:00,64.2,50.9,30.12,SE,144,11.0,13.2,62,0.00,,---,0.00,VWS V14.01,2013-07-18 11:39:00,
2013-07-18 05:45:00,64.2,50.9,30.12,SE,144,14.5,14.5,62,0.00,,---,0.00,VWS V14.01,2013-07-18 11:45:00,
2013-07-18 05:50:00,64.6,52.1,30.12,SE,137,11.0,12.3,64,0.00,,---,0.00,VWS V14.01,2013-07-18 11:50:00,
2013-07-18 05:55:00,65.5,53.4,30.15,SSE,150,13.2,14.1,65,0.00,,---,0.00,VWS V14.01,2013-07-18 11:55:00,
2013-07-18 06:00:00,66.0,53.9,30.15,SSE,151,12.8,12.8,65,0.00,,---,0.00,VWS V14.01,2013-07-18 12:00:00,
2013-07-18 06:06:00,67.3,54.7,30.12,SSE,151,11.4,12.8,64,0.00,,---,0.00,VWS V14.01,2013-07-18 12:06:00,
2013-07-18 06:12:00,68.2,55.5,30.12,SSE,148,12.3,13.2,64,0.00,,---,0.00,VWS V14.01,2013-07-18 12:12:00,
2013-07-18 06:18:00,68.5,55.5,30.12,SE,144,11.0,11.0,63,0.00,,---,0.00,VWS V14.01,2013-07-18 12:18:00,
2013-07-18 06:24:00,69.1,55.5,30.12,SE,145,10.5,10.5,62,0.00,,---,0.00,VWS V14.01,2013-07-18 12:24:00,
2013-07-18 06:29:00,69.3,55.7,30.12,SSE,156,11.0,11.0,62,0.00,,---,0.00,VWS V14.01,2013-07-18 12:29:00,
2013-07-18 06:35:00,69.6,56.0,30.12,SE,146,12.8,12.8,62,0.00,,---,0.00,VWS V14.01,2013-07-18 12:35:00,
2013-07-18 06:40:00,69.8,55.8,30.12,SSE,152,12.8,12.8,61,0.00,,---,0.00,VWS V14.01,2013-07-18 12:40:00,
2013-07-18 06:46:00,70.2,55.6,30.12,SSE,151,12.3,12.3,60,0.00,,---,0.00,VWS V14.01,2013-07-18 12:46:00,
2013-07-18 06:52:00,70.5,55.0,30.12,SE,137,11.0,11.0,58,0.00,,---,0.00,VWS V14.01,2013-07-18 12:52:00,
2013-07-18 06:57:00,70.9,54.9,30.12,South,170,14.5,14.5,57,0.00,,---,0.00,VWS V14.01,2013-07-18 12:57:00,
2013-07-18 07:03:00,71.1,54.6,30.12,SSE,155,8.1,10.1,56,0.00,,---,0.00,VWS V14.01,2013-07-18 13:03:00,
2013-07-18 07:08:00,71.4,54.9,30.15,SSE,161,13.2,13.2,56,0.00,,---,0.00,VWS V14.01,2013-07-18 13:08:00,
2013-07-18 07:13:00,71.8,54.3,30.15,South,177,15.4,15.4,54,0.00,,---,0.00,VWS V14.01,2013-07-18 13:13:00,
2013-07-18 07:18:00,72.1,54.1,30.15,SSE,166,12.8,13.2,53,0.00,,---,0.00,VWS V14.01,2013-07-18 13:18:00,
2013-07-18 07:24:00,72.5,53.4,30.15,South,179,15.4,15.4,51,0.00,,---,0.00,VWS V14.01,2013-07-18 13:24:00,
2013-07-18 07:30:00,73.2,52.4,30.15,SSE,163,13.2,13.2,48,0.00,,---,0.00,VWS V14.01,2013-07-18 13:30:00,
2013-07-18 07:35:00,73.8,52.3,30.15,SSE,158,13.2,13.2,47,0.00,,---,0.00,VWS V14.01,2013-07-18 13:35:00,
2013-07-18 07:41:00,74.1,50.8,30.15,South,176,11.9,11.9,44,0.00,,---,0.00,VWS V14.01,2013-07-18 13:41:00,
2013-07-18 07:46:00,74.7,50.7,30.15,SSE,165,12.3,15.0,43,0.00,,---,0.00,VWS V14.01,2013-07-18 13:46:00,
2013-07-18 07:51:00,75.2,50.6,30.12,South,171,20.6,20.6,42,0.00,,---,0.00,VWS V14.01,2013-07-18 13:51:00,
2013-07-18 07:56:00,75.4,50.1,30.12,SSE,163,13.2,13.6,41,0.00,,---,0.00,VWS V14.01,2013-07-18 13:56:00,
2013-07-18 08:02:00,75.9,49.9,30.12,South,179,16.3,16.3,40,0.00,,---,0.00,VWS V14.01,2013-07-18 14:02:00,
2013-07-18 08:07:00,76.5,49.7,30.12,SSE,164,14.1,14.1,39,0.00,,---,0.00,VWS V14.01,2013-07-18 14:07:00,
2013-07-18 08:13:00,77.4,49.1,30.12,SSE,156,15.4,16.8,37,0.00,,---,0.00,VWS V14.01,2013-07-18 14:13:00,
2013-07-18 08:18:00,77.4,48.3,30.12,South,185,13.2,14.5,36,0.00,,---,0.00,VWS V14.01,2013-07-18 14:18:00,
2013-07-18 08:24:00,77.9,48.1,30.12,South,177,15.0,15.0,35,0.00,,---,0.00,VWS V14.01,2013-07-18 14:24:00,
2013-07-18 08:29:00,78.3,47.6,30.12,SSE,156,14.1,14.1,34,0.00,,---,0.00,VWS V14.01,2013-07-18 14:29:00,
2013-07-18 08:35:00,78.8,47.3,30.12,South,169,14.5,19.2,33,0.00,,---,0.00,VWS V14.01,2013-07-18 14:35:00,
2013-07-18 08:41:00,79.2,46.8,30.12,SSW,197,18.3,18.3,32,0.00,,---,0.00,VWS V14.01,2013-07-18 14:41:00,
2013-07-18 08:46:00,79.3,47.0,30.12,SSE,164,15.4,15.4,32,0.00,,---,0.00,VWS V14.01,2013-07-18 14:46:00,
2013-07-18 08:52:00,79.7,47.3,30.12,SSE,168,16.3,16.3,32,0.00,,---,0.00,VWS V14.01,2013-07-18 14:52:00,
2013-07-18 08:57:00,80.1,47.6,30.12,ESE,121,11.9,11.9,32,0.00,,---,0.00,VWS V14.01,2013-07-18 14:57:00,
2013-07-18 09:03:00,80.2,46.9,30.12,SE,144,17.9,18.3,31,0.00,,---,0.00,VWS V14.01,2013-07-18 15:03:00,
2013-07-18 09:09:00,80.2,46.9,30.12,South,176,18.3,18.3,31,0.00,,---,0.00,VWS V14.01,2013-07-18 15:09:00,
2013-07-18 09:14:00,81.1,46.8,30.12,South,179,14.5,15.4,30,0.00,,---,0.00,VWS V14.01,2013-07-18 15:14:00,
2013-07-18 09:19:00,81.3,47.0,30.12,South,172,17.4,17.4,30,0.00,,---,0.00,VWS V14.01,2013-07-18 15:19:00,
2013-07-18 09:24:00,82.0,47.6,30.12,SSE,153,11.0,17.9,30,0.00,,---,0.00,VWS V14.01,2013-07-18 15:24:00,
2013-07-18 09:30:00,82.4,47.0,30.12,SSE,165,15.4,15.4,29,0.00,,---,0.00,VWS V14.01,2013-07-18 15:30:00,
2013-07-18 09:35:00,82.8,47.3,30.12,South,180,15.4,15.4,29,0.00,,---,0.00,VWS V14.01,2013-07-18 15:35:00,
2013-07-18 09:40:00,82.8,47.3,30.12,South,173,16.8,17.9,29,0.00,,---,0.00,VWS V14.01,2013-07-18 15:40:00,
2013-07-18 09:46:00,83.1,46.7,30.12,South,171,18.8,22.8,28,0.00,,---,0.00,VWS V14.01,2013-07-18 15:46:00,
2013-07-18 09:52:00,83.3,46.8,30.12,South,173,17.4,17.4,28,0.00,,---,0.00,VWS V14.01,2013-07-18 15:52:00,
2013-07-18 09:58:00,84.0,46.5,30.12,South,171,16.3,17.9,27,0.00,,---,0.00,VWS V14.01,2013-07-18 15:58:00,
2013-07-18 10:03:00,84.2,46.6,30.12,South,177,11.0,11.0,27,0.00,,---,0.00,VWS V14.01,2013-07-18 16:03:00,
2013-07-18 10:09:00,84.7,45.1,30.12,South,172,20.1,20.1,25,0.00,,---,0.00,VWS V14.01,2013-07-18 16:09:00,
2013-07-18 10:15:00,84.9,44.1,30.12,South,181,22.8,22.8,24,0.00,,---,0.00,VWS V14.01,2013-07-18 16:15:00,
2013-07-18 10:20:00,85.3,43.3,30.12,South,181,18.3,21.9,23,0.00,,---,0.00,VWS V14.01,2013-07-18 16:20:00,
2013-07-18 10:26:00,85.1,43.2,30.12,South,170,16.8,16.8,23,0.00,,---,0.00,VWS V14.01,2013-07-18 16:26:00,
2013-07-18 10:31:00,85.1,43.2,30.12,South,171,15.4,15.9,23,0.00,,---,0.00,VWS V14.01,2013-07-18 16:31:00,
2013-07-18 10:37:00,85.5,44.6,30.12,SSE,164,20.6,20.6,24,0.00,,---,0.00,VWS V14.01,2013-07-18 16:37:00,
2013-07-18 10:42:00,85.6,43.6,30.12,South,180,20.1,22.8,23,0.00,,---,0.00,VWS V14.01,2013-07-18 16:42:00,
2013-07-18 10:48:00,86.4,43.1,30.12,SSE,147,21.0,21.0,22,0.00,,---,0.00,VWS V14.01,2013-07-18 16:48:00,
2013-07-18 10:54:00,86.4,43.1,30.12,South,186,19.2,19.2,22,0.00,,---,0.00,VWS V14.01,2013-07-18 16:54:00,
2013-07-18 10:59:00,86.5,43.2,30.09,SSW,202,22.8,22.8,22,0.00,,---,0.00,VWS V14.01,2013-07-18 16:59:00,
2013-07-18 11:04:00,86.7,43.4,30.09,South,169,17.4,17.4,22,0.00,,---,0.00,VWS V14.01,2013-07-18 17:04:00,
2013-07-18 11:10:00,87.1,43.7,30.09,South,185,13.6,13.6,22,0.00,,---,0.00,VWS V14.01,2013-07-18 17:10:00,
2013-07-18 11:16:00,87.1,43.7,30.09,SSW,193,20.6,20.6,22,0.00,,---,0.00,VWS V14.01,2013-07-18 17:16:00,
2013-07-18 11:21:00,87.1,43.7,30.09,South,183,10.1,16.8,22,0.00,,---,0.00,VWS V14.01,2013-07-18 17:21:00,
2013-07-18 11:26:00,87.8,43.0,30.09,SSE,150,17.9,17.9,21,0.00,,---,0.00,VWS V14.01,2013-07-18 17:26:00,
2013-07-18 11:32:00,88.0,43.2,30.09,SSE,152,14.1,14.1,21,0.00,,---,0.00,VWS V14.01,2013-07-18 17:32:00,
2013-07-18 11:37:00,88.2,42.1,30.09,South,172,26.6,26.6,20,0.00,,---,0.00,VWS V14.01,2013-07-18 17:37:00,
2013-07-18 11:42:00,88.2,42.1,30.09,SSW,192,15.0,21.0,20,0.00,,---,0.00,VWS V14.01,2013-07-18 17:42:00,
2013-07-18 11:48:00,88.3,42.2,30.09,South,171,14.5,14.5,20,0.00,,---,0.00,VWS V14.01,2013-07-18 17:48:00,
2013-07-18 11:54:00,88.5,42.4,30.09,SSE,167,10.5,15.4,20,0.00,,---,0.00,VWS V14.01,2013-07-18 17:54:00,
2013-07-18 12:00:00,88.7,42.5,30.09,South,172,15.4,15.4,20,0.00,,---,0.00,VWS V14.01,2013-07-18 18:00:00,
2013-07-18 12:05:00,88.7,42.5,30.09,South,177,14.5,19.7,20,0.00,,---,0.00,VWS V14.01,2013-07-18 18:05:00,
2013-07-18 12:10:00,88.7,42.5,30.06,South,170,22.8,22.8,20,0.00,,---,0.00,VWS V14.01,2013-07-18 18:10:00,
2013-07-18 12:15:00,88.7,42.5,30.06,SSW,193,21.9,21.9,20,0.00,,---,0.00,VWS V14.01,2013-07-18 18:15:00,
2013-07-18 12:21:00,88.5,42.4,30.06,South,188,15.0,15.0,20,0.00,,---,0.00,VWS V14.01,2013-07-18 18:21:00,
2013-07-18 12:26:00,89.2,41.6,30.06,SSW,198,13.6,17.0,19,0.00,,---,0.00,VWS V14.01,2013-07-18 18:26:00,
2013-07-18 12:32:00,89.2,41.6,30.06,SE,145,15.4,17.9,19,0.00,,---,0.00,VWS V14.01,2013-07-18 18:32:00,
2013-07-18 12:37:00,90.1,42.4,30.06,SE,138,17.4,17.4,19,0.00,,---,0.00,VWS V14.01,2013-07-18 18:37:00,
2013-07-18 12:43:00,90.7,42.8,30.06,SSE,165,17.4,17.4,19,0.00,,---,0.00,VWS V14.01,2013-07-18 18:43:00,
2013-07-18 12:48:00,90.9,41.5,30.06,SSE,167,25.1,25.1,18,0.00,,---,0.00,VWS V14.01,2013-07-18 18:48:00,
2013-07-18 12:54:00,90.7,41.4,30.06,SSW,200,17.0,18.3,18,0.00,,---,0.00,VWS V14.01,2013-07-18 18:54:00,
2013-07-18 13:00:00,90.7,41.4,30.06,SSE,168,19.2,19.2,18,0.00,,---,0.00,VWS V14.01,2013-07-18 19:00:00,
2013-07-18 13:05:00,90.9,41.5,30.06,South,178,15.0,18.3,18,0.00,,---,0.00,VWS V14.01,2013-07-18 19:05:00,
2013-07-18 13:11:00,91.4,42.0,30.06,South,175,13.2,17.0,18,0.00,,---,0.00,VWS V14.01,2013-07-18 19:11:00,
2013-07-18 13:17:00,91.6,42.1,30.06,South,173,15.9,19.7,18,0.00,,---,0.00,VWS V14.01,2013-07-18 19:17:00,
2013-07-18 13:22:00,91.8,42.3,30.06,SSE,153,15.9,15.9,18,0.00,,---,0.00,VWS V14.01,2013-07-18 19:22:00,
2013-07-18 13:28:00,92.1,41.1,30.06,South,171,12.8,16.8,17,0.00,,---,0.00,VWS V14.01,2013-07-18 19:28:00,
2013-07-18 13:33:00,92.1,41.1,30.06,SSW,199,16.3,16.3,17,0.00,,---,0.00,VWS V14.01,2013-07-18 19:33:00,
2013-07-18 13:39:00,92.3,41.2,30.06,SSW,204,16.3,19.7,17,0.00,,---,0.00,VWS V14.01,2013-07-18 19:39:00,
2013-07-18 13:44:00,92.5,41.4,30.06,SE,128,13.2,21.5,17,0.00,,---,0.00,VWS V14.01,2013-07-18 19:44:00,
2013-07-18 13:50:00,92.3,41.2,30.06,South,187,19.2,21.0,17,0.00,,---,0.00,VWS V14.01,2013-07-18 19:50:00,
2013-07-18 13:56:00,92.3,41.2,30.06,SSW,197,16.3,17.4,17,0.00,,---,0.00,VWS V14.01,2013-07-18 19:56:00,
2013-07-18 14:01:00,92.5,41.4,30.06,South,173,15.4,15.4,17,0.00,,---,0.00,VWS V14.01,2013-07-18 20:01:00,
2013-07-18 14:07:00,93.0,41.8,30.06,SSW,210,15.0,15.0,17,0.00,,---,0.00,VWS V14.01,2013-07-18 20:07:00,
2013-07-18 14:13:00,93.2,42.0,30.06,SSE,159,15.4,19.7,17,0.00,,---,0.00,VWS V14.01,2013-07-18 20:13:00,
2013-07-18 14:18:00,93.6,42.2,30.06,South,189,17.4,17.4,17,0.00,,---,0.00,VWS V14.01,2013-07-18 20:18:00,
2013-07-18 14:23:00,93.9,42.5,30.06,South,170,14.1,18.8,17,0.00,,---,0.00,VWS V14.01,2013-07-18 20:23:00,
2013-07-18 14:28:00,94.3,41.2,30.03,SSE,165,11.0,14.1,16,0.00,,---,0.00,VWS V14.01,2013-07-18 20:28:00,
2013-07-18 14:34:00,94.3,42.8,30.03,SSE,163,15.4,16.3,17,0.00,,---,0.00,VWS V14.01,2013-07-18 20:34:00,
2013-07-18 14:39:00,94.3,42.8,30.03,SSE,165,12.3,15.4,17,0.00,,---,0.00,VWS V14.01,2013-07-18 20:39:00,
2013-07-18 14:45:00,93.9,42.5,30.03,SSE,147,14.1,16.3,17,0.00,,---,0.00,VWS V14.01,2013-07-18 20:45:00,
2013-07-18 14:50:00,93.9,41.0,30.03,SSW,197,11.0,17.4,16,0.00,,---,0.00,VWS V14.01,2013-07-18 20:50:00,
2013-07-18 14:56:00,94.1,41.1,30.03,South,184,13.2,13.2,16,0.00,,---,0.00,VWS V14.01,2013-07-18 20:56:00,
2013-07-18 15:01:00,94.1,41.1,30.03,South,183,15.4,16.3,16,0.00,,---,0.00,VWS V14.01,2013-07-18 21:01:00,
2013-07-18 15:07:00,94.1,41.1,30.03,South,172,15.4,15.4,16,0.00,,---,0.00,VWS V14.01,2013-07-18 21:07:00,
2013-07-18 15:13:00,94.1,41.1,30.03,South,184,11.0,17.4,16,0.00,,---,0.00,VWS V14.01,2013-07-18 21:13:00,
2013-07-18 15:18:00,94.1,41.1,30.03,South,180,13.2,15.0,16,0.00,,---,0.00,VWS V14.01,2013-07-18 21:18:00,
2013-07-18 15:23:00,94.5,41.4,30.03,SSE,167,15.0,17.4,16,0.00,,---,0.00,VWS V14.01,2013-07-18 21:23:00,
2013-07-18 15:28:00,94.6,38.1,30.03,South,181,14.1,14.1,14,0.00,,---,0.00,VWS V14.01,2013-07-18 21:28:00,
2013-07-18 15:34:00,94.6,41.5,30.03,SSW,196,15.4,15.4,16,0.00,,---,0.00,VWS V14.01,2013-07-18 21:34:00,
2013-07-18 15:39:00,94.6,41.5,30.03,SSW,204,17.0,17.0,16,0.00,,---,0.00,VWS V14.01,2013-07-18 21:39:00,
2013-07-18 15:45:00,94.8,38.2,30.03,South,190,11.0,13.2,14,0.00,,---,0.00,VWS V14.01,2013-07-18 21:45:00,
2013-07-18 15:51:00,94.8,38.2,30.00,South,173,5.8,15.0,14,0.00,,---,0.00,VWS V14.01,2013-07-18 21:51:00,
2013-07-18 15:56:00,94.8,38.2,30.00,SSE,163,13.2,13.2,14,0.00,,---,0.00,VWS V14.01,2013-07-18 21:56:00,
2013-07-18 16:02:00,94.8,38.2,30.00,South,169,14.1,18.8,14,0.00,,---,0.00,VWS V14.01,2013-07-18 22:02:00,
2013-07-18 16:07:00,95.0,38.4,30.00,South,188,17.0,17.0,14,0.00,,---,0.00,VWS V14.01,2013-07-18 22:07:00,
2013-07-18 16:12:00,94.8,38.2,30.00,South,179,13.2,13.2,14,0.00,,---,0.00,VWS V14.01,2013-07-18 22:12:00,
2013-07-18 16:17:00,94.8,38.2,30.00,South,174,13.6,13.6,14,0.00,,---,0.00,VWS V14.01,2013-07-18 22:17:00,
2013-07-18 16:23:00,94.8,38.2,30.00,South,170,11.0,17.0,14,0.00,,---,0.00,VWS V14.01,2013-07-18 22:23:00,
2013-07-18 16:28:00,95.2,38.5,30.00,South,187,12.8,13.2,14,0.00,,---,0.00,VWS V14.01,2013-07-18 22:28:00,
2013-07-18 16:34:00,95.2,38.5,30.00,South,180,10.1,14.1,14,0.00,,---,0.00,VWS V14.01,2013-07-18 22:34:00,
2013-07-18 16:39:00,95.4,38.7,30.00,SSE,167,13.2,15.4,14,0.00,,---,0.00,VWS V14.01,2013-07-18 22:39:00,
2013-07-18 16:45:00,94.8,38.2,30.00,SSE,165,14.1,14.1,14,0.00,,---,0.00,VWS V14.01,2013-07-18 22:45:00,
2013-07-18 16:50:00,94.5,38.0,30.00,SSE,162,15.4,15.4,14,0.00,,---,0.00,VWS V14.01,2013-07-18 22:50:00,
2013-07-18 16:55:00,94.3,37.8,30.00,South,171,13.2,13.2,14,0.00,,---,0.00,VWS V14.01,2013-07-18 22:55:00,
2013-07-18 17:00:00,93.9,37.5,30.00,SSE,164,11.9,11.9,14,0.00,,---,0.00,VWS V14.01,2013-07-18 23:00:00,
2013-07-18 17:06:00,94.5,38.0,30.00,SSE,160,12.8,12.8,14,0.00,,---,0.00,VWS V14.01,2013-07-18 23:06:00,
2013-07-18 17:12:00,94.5,38.0,30.00,SSE,157,12.8,12.8,14,0.00,,---,0.00,VWS V14.01,2013-07-18 23:12:00,
2013-07-18 17:17:00,94.5,38.0,30.00,SSE,159,11.0,11.0,14,0.00,,---,0.00,VWS V14.01,2013-07-18 23:17:00,
2013-07-18 17:22:00,94.5,38.0,30.00,South,169,12.8,12.8,14,0.00,,---,0.00,VWS V14.01,2013-07-18 23:22:00,
2013-07-18 17:27:00,94.6,38.1,30.00,SSE,160,12.8,12.8,14,0.00,,---,0.00,VWS V14.01,2013-07-18 23:27:00,
2013-07-18 17:33:00,94.8,38.2,29.97,SSE,148,7.6,8.3,14,0.00,,---,0.00,VWS V14.01,2013-07-18 23:33:00,
2013-07-18 17:38:00,95.0,38.4,29.97,South,172,13.2,13.2,14,0.00,,---,0.00,VWS V14.01,2013-07-18 23:38:00,
2013-07-18 17:44:00,95.4,38.7,29.97,SSE,155,10.1,10.1,14,0.00,,---,0.00,VWS V14.01,2013-07-18 23:44:00,
2013-07-18 17:50:00,96.1,39.2,29.97,SSE,155,10.5,10.5,14,0.00,,---,0.00,VWS V14.01,2013-07-18 23:50:00,
2013-07-18 17:55:00,96.4,39.5,29.97,SSE,165,10.1,10.1,14,0.00,,---,0.00,VWS V14.01,2013-07-18 23:55:00,
2013-07-18 18:01:00,96.8,37.9,29.97,South,173,8.3,8.3,13,0.00,,---,0.00,VWS V14.01,2013-07-19 00:01:00,
2013-07-18 18:06:00,97.5,38.5,29.97,SSE,165,8.7,8.7,13,0.00,,---,0.00,VWS V14.01,2013-07-19 00:06:00,
2013-07-18 18:11:00,97.9,38.8,29.97,SSE,165,8.1,8.1,13,0.00,,---,0.00,VWS V14.01,2013-07-19 00:11:00,
2013-07-18 18:16:00,98.4,39.2,29.97,SSE,166,11.0,11.0,13,0.00,,---,0.00,VWS V14.01,2013-07-19 00:16:00,
2013-07-18 18:22:00,98.4,39.2,29.97,SSE,155,7.6,7.6,13,0.00,,---,0.00,VWS V14.01,2013-07-19 00:22:00,
2013-07-18 18:27:00,98.4,39.2,29.97,SSE,153,5.4,8.7,13,0.00,,---,0.00,VWS V14.01,2013-07-19 00:27:00,
2013-07-18 18:33:00,98.4,39.2,29.97,South,182,6.3,6.3,13,0.00,,---,0.00,VWS V14.01,2013-07-19 00:33:00,
2013-07-18 18:39:00,98.2,39.0,29.97,SSE,167,5.4,5.4,13,0.00,,---,0.00,VWS V14.01,2013-07-19 00:39:00,
2013-07-18 18:44:00,98.2,39.0,29.97,SSE,165,7.6,7.6,13,0.00,,---,0.00,VWS V14.01,2013-07-19 00:44:00,
2013-07-18 18:49:00,98.4,39.2,29.97,SSE,153,7.6,7.6,13,0.00,,---,0.00,VWS V14.01,2013-07-19 00:49:00,
2013-07-18 18:54:00,98.4,39.2,29.97,SSE,150,5.8,5.8,13,0.00,,---,0.00,VWS V14.01,2013-07-19 00:54:00,
2013-07-18 19:00:00,98.4,39.2,29.97,SSE,162,6.3,6.3,13,0.00,,---,0.00,VWS V14.01,2013-07-19 01:00:00,
2013-07-18 19:05:00,97.9,38.8,29.97,SSE,155,7.6,7.6,13,0.00,,---,0.00,VWS V14.01,2013-07-19 01:05:00,
2013-07-18 19:11:00,97.0,38.0,29.97,SSE,154,5.8,6.3,13,0.00,,---,0.00,VWS V14.01,2013-07-19 01:11:00,
2013-07-18 19:16:00,96.8,37.9,29.97,SSE,148,5.8,5.8,13,0.00,,---,0.00,VWS V14.01,2013-07-19 01:16:00,
2013-07-18 19:21:00,96.8,43.3,29.97,SSE,150,2.7,2.7,16,0.00,,---,0.00,VWS V14.01,2013-07-19 01:21:00,
2013-07-18 19:26:00,97.0,43.4,29.97,SSE,150,0.0,0.0,16,0.00,,---,0.00,VWS V14.01,2013-07-19 01:26:00,
2013-07-18 19:32:00,96.8,43.3,29.97,SE,137,7.6,7.6,16,0.00,,---,0.00,VWS V14.01,2013-07-19 01:32:00,
2013-07-18 19:37:00,95.7,42.4,29.97,ESE,117,7.6,7.6,16,0.00,,---,0.00,VWS V14.01,2013-07-19 01:37:00,
2013-07-18 19:42:00,94.8,41.7,29.97,ESE,122,7.6,7.6,16,0.00,,---,0.00,VWS V14.01,2013-07-19 01:42:00,
2013-07-18 19:47:00,93.4,42.1,29.97,SE,126,7.6,7.6,17,0.00,,---,0.00,VWS V14.01,2013-07-19 01:47:00,
2013-07-18 19:53:00,92.3,41.2,29.97,ESE,122,9.2,9.2,17,0.00,,---,0.00,VWS V14.01,2013-07-19 01:53:00,
2013-07-18 19:58:00,90.7,41.4,29.97,SE,124,8.7,8.7,18,0.00,,---,0.00,VWS V14.01,2013-07-19 01:58:00,
2013-07-18 20:04:00,88.0,40.6,29.97,SE,130,8.7,8.7,19,0.00,,---,0.00,VWS V14.01,2013-07-19 02:04:00,
2013-07-18 20:09:00,85.8,40.2,29.97,SE,128,8.7,9.2,20,0.00,,---,0.00,VWS V14.01,2013-07-19 02:09:00,
2013-07-18 20:14:00,84.4,39.0,29.97,SE,126,8.7,10.1,20,0.00,,---,0.00,VWS V14.01,2013-07-19 02:14:00,
2013-07-18 20:20:00,83.3,39.3,29.97,SE,127,8.3,8.3,21,0.00,,---,0.00,VWS V14.01,2013-07-19 02:20:00,
2013-07-18 20:25:00,82.4,39.8,29.97,SE,127,9.2,10.1,22,0.00,,---,0.00,VWS V14.01,2013-07-19 02:25:00,
2013-07-18 20:31:00,81.3,40.0,29.97,SE,130,8.3,8.3,23,0.00,,---,0.00,VWS V14.01,2013-07-19 02:31:00,
2013-07-18 20:36:00,80.1,41.1,29.97,SE,131,8.7,8.7,25,0.00,,---,0.00,VWS V14.01,2013-07-19 02:36:00,
2013-07-18 20:42:00,79.7,40.8,30.00,SE,127,7.6,8.7,25,0.00,,---,0.00,VWS V14.01,2013-07-19 02:42:00,
2013-07-18 20:48:00,79.3,41.5,30.00,SE,127,6.3,6.3,26,0.00,,---,0.00,VWS V14.01,2013-07-19 02:48:00,
2013-07-18 20:53:00,79.0,41.2,30.00,ESE,123,6.3,6.3,26,0.00,,---,0.00,VWS V14.01,2013-07-19 02:53:00,
2013-07-18 20:59:00,78.1,42.4,30.00,SE,129,6.3,6.3,28,0.00,,---,0.00,VWS V14.01,2013-07-19 02:59:00,
2013-07-18 21:04:00,77.9,42.2,30.00,SE,129,5.8,5.8,28,0.00,,---,0.00,VWS V14.01,2013-07-19 03:04:00,
2013-07-18 21:09:00,77.9,42.2,30.00,SE,125,7.6,7.6,28,0.00,,---,0.00,VWS V14.01,2013-07-19 03:09:00,
2013-07-18 21:14:00,77.4,42.7,30.00,SE,125,8.7,8.7,29,0.00,,---,0.00,VWS V14.01,2013-07-19 03:14:00,
2013-07-18 21:20:00,77.0,43.2,30.00,SE,130,8.1,8.3,30,0.00,,---,0.00,VWS V14.01,2013-07-19 03:20:00,
2013-07-18 21:25:00,76.6,43.8,30.00,ESE,123,8.3,8.3,31,0.00,,---,0.00,VWS V14.01,2013-07-19 03:25:00,
2013-07-18 21:31:00,76.5,43.6,30.00,ESE,123,7.6,8.1,31,0.00,,---,0.00,VWS V14.01,2013-07-19 03:31:00,
2013-07-18 21:37:00,76.5,43.6,30.00,ESE,122,8.3,8.3,31,0.00,,---,0.00,VWS V14.01,2013-07-19 03:37:00,
2013-07-18 21:43:00,76.6,43.8,30.00,ESE,122,8.1,8.1,31,0.00,,---,0.00,VWS V14.01,2013-07-19 03:43:00,
2013-07-18 21:49:00,76.3,43.5,30.03,ESE,121,9.6,9.6,31,0.00,,---,0.00,VWS V14.01,2013-07-19 03:49:00,
2013-07-18 21:55:00,76.1,43.3,30.03,ESE,120,8.7,8.7,31,0.00,,---,0.00,VWS V14.01,2013-07-19 03:55:00,
2013-07-18 22:00:00,75.6,43.7,30.03,ESE,123,10.1,10.1,32,0.00,,---,0.00,VWS V14.01,2013-07-19 04:00:00,
2013-07-18 22:01:00,75.6,43.7,30.03,SE,124,9.2,10.1,32,0.00,,---,0.00,VWS V14.01,2013-07-19 04:01:00,
2013-07-18 22:02:00,75.6,43.7,30.03,SE,124,9.2,9.2,32,0.00,,---,0.00,VWS V14.01,2013-07-19 04:02:00,
2013-07-18 22:03:00,75.6,43.7,30.03,SE,125,8.3,9.2,32,0.00,,---,0.00,VWS V14.01,2013-07-19 04:03:00,
2013-07-18 22:04:00,75.6,43.7,30.03,SE,127,8.7,8.7,32,0.00,,---,0.00,VWS V14.01,2013-07-19 04:04:00,
2013-07-18 22:08:00,75.7,43.8,30.03,SE,129,9.6,9.6,32,0.00,,---,0.00,VWS V14.01,2013-07-19 04:08:00,
2013-07-18 22:14:00,75.7,43.8,30.03,SE,127,10.1,10.5,32,0.00,,---,0.00,VWS V14.01,2013-07-19 04:14:00,
2013-07-18 22:19:00,75.7,43.8,30.03,SE,128,8.7,8.7,32,0.00,,---,0.00,VWS V14.01,2013-07-19 04:19:00,
2013-07-18 22:24:00,75.7,43.8,30.00,SE,134,8.1,8.1,32,0.00,,---,0.00,VWS V14.01,2013-07-19 04:24:00,
2013-07-18 22:30:00,75.4,43.5,30.00,SE,130,5.8,7.6,32,0.00,,---,0.00,VWS V14.01,2013-07-19 04:30:00,
2013-07-18 22:35:00,75.0,44.0,30.03,SE,131,10.1,10.1,33,0.00,,---,0.00,VWS V14.01,2013-07-19 04:35:00,
2013-07-18 22:41:00,74.7,44.5,30.03,SE,131,11.0,12.3,34,0.00,,---,0.00,VWS V14.01,2013-07-19 04:41:00,
2013-07-18 22:47:00,74.5,44.3,30.03,SE,138,11.0,12.3,34,0.00,,---,0.00,VWS V14.01,2013-07-19 04:47:00,
2013-07-18 22:52:00,74.5,44.3,30.03,SE,146,10.1,10.1,34,0.00,,---,0.00,VWS V14.01,2013-07-19 04:52:00,
2013-07-18 22:58:00,74.5,44.3,30.03,SE,144,8.3,8.3,34,0.00,,---,0.00,VWS V14.01,2013-07-19 04:58:00,
2013-07-18 23:03:00,74.3,44.1,30.03,SSE,149,11.9,11.9,34,0.00,,---,0.00,VWS V14.01,2013-07-19 05:03:00,
2013-07-18 23:08:00,74.3,44.1,30.03,SE,144,8.3,10.1,34,0.00,,---,0.00,VWS V14.01,2013-07-19 05:08:00,
2013-07-18 23:13:00,74.7,44.5,30.03,SE,140,9.6,9.6,34,0.00,,---,0.00,VWS V14.01,2013-07-19 05:13:00,
2013-07-18 23:19:00,74.8,44.6,30.03,SE,143,9.6,12.3,34,0.00,,---,0.00,VWS V14.01,2013-07-19 05:19:00,
2013-07-18 23:24:00,74.5,44.3,30.03,SSE,162,10.1,10.5,34,0.00,,---,0.00,VWS V14.01,2013-07-19 05:24:00,
2013-07-18 23:30:00,74.1,44.0,30.03,SE,144,8.7,8.7,34,0.00,,---,0.00,VWS V14.01,2013-07-19 05:30:00,
2013-07-18 23:35:00,74.3,44.1,30.03,SSE,149,8.7,10.1,34,0.00,,---,0.00,VWS V14.01,2013-07-19 05:35:00,
2013-07-18 23:40:00,74.3,44.1,30.03,SSE,165,8.3,8.3,34,0.00,,---,0.00,VWS V14.01,2013-07-19 05:40:00,
2013-07-18 23:45:00,74.1,44.0,30.03,SSE,148,7.6,8.3,34,0.00,,---,0.00,VWS V14.01,2013-07-19 05:45:00,
2013-07-18 23:51:00,73.9,43.8,30.03,SE,144,8.1,8.1,34,0.00,,---,0.00,VWS V14.01,2013-07-19 05:51:00,
2013-07-18 23:56:00,73.8,43.7,30.03,SSE,155,8.7,8.7,34,0.00,,---,0.00,VWS V14.01,2013-07-19 05:56:00,